EDT,Max TemperatureF,Mean TemperatureF,Min TemperatureF,Max Dew PointF,MeanDew PointF,Min DewpointF,Max Humidity, Mean Humidity, Min Humidity, Max Sea Level PressureIn, Mean Sea Level PressureIn, Min Sea Level PressureIn, Max VisibilityMiles, Mean VisibilityMiles, Min VisibilityMiles, Max Wind SpeedMPH, Mean Wind SpeedMPH, Max Gust SpeedMPH,PrecipitationIn, CloudCover, Events, WindDirDegrees
2013-3-1,33,30,27,28,23,18,87,74,66,30.14,30.04,29.95,10,10,10,13,9,18,0.00,8,,20
2013-3-2,28,27,25,19,18,15,74,68,63,30.12,30.10,30.06,10,10,7,13,9,17,0.00,8,Snow,349
2013-3-3,30,27,23,16,14,12,72,60,47,30.10,30.08,30.05,10,10,10,12,7,21,0.00,4,,323
2013-3-4,37,27,17,23,17,12,84,65,42,30.19,30.13,30.09,10,10,10,6,2,,0.00,1,,64
2013-3-5,34,31,28,27,24,20,93,79,61,30.10,29.84,29.72,10,5,1,20,12,34,0.06,8,Snow,56
2013-3-6,37,32,26,27,24,21,93,75,65,30.25,30.01,29.76,10,9,1,20,13,28,0.00,6,Snow,349
2013-3-7,39,36,32,30,26,22,82,71,57,30.42,30.33,30.22,10,10,8,12,5,22,0.00,8,,326
2013-3-8,45,34,24,26,23,19,89,66,45,30.52,30.46,30.43,10,10,10,6,1,,0.00,1,,48
2013-3-9,48,37,26,34,29,22,89,69,54,30.42,30.25,30.02,10,10,8,12,3,,0.00,1,,142
2013-3-10,63,50,37,42,37,31,79,54,41,30.01,29.91,29.78,10,10,10,17,8,25,0.01,3,Rain,165
2013-3-11,57,47,37,49,44,31,93,81,53,29.78,29.64,29.53,10,7,1,21,15,33,0.40,8,Rain,205
2013-3-12,36,33,30,32,27,23,89,78,64,29.98,29.91,29.78,10,9,2,14,9,24,0.00,7,Rain-Snow,241
2013-3-13,32,29,26,27,21,16,86,72,58,30.29,30.09,29.94,10,6,1,20,9,29,0.00,7,Snow,284
2013-3-14,42,31,21,23,19,15,75,61,40,30.32,30.25,30.15,10,10,10,10,4,17,0.00,0,,245
2013-3-15,46,38,30,40,33,22,96,83,63,30.13,29.93,29.81,10,6,2,9,4,,0.05,5,Rain,228
2013-3-16,41,36,32,40,31,25,100,87,75,30.09,29.85,29.70,10,6,1,13,7,18,0.02,8,Rain,25
2013-3-17,33,30,28,25,20,18,80,66,56,30.25,30.18,30.06,10,10,10,14,8,22,0.00,6,,53
2013-3-18,37,32,28,36,30,20,100,89,69,30.13,29.75,29.57,10,6,1,18,11,23,0.05,7,Rain-Snow,92
2013-3-19,35,30,24,28,16,12,76,59,46,30.02,29.88,29.71,10,10,6,21,13,33,0.00,6,Snow,256
2013-3-20,30,24,19,15,12,7,66,55,45,30.02,30.00,29.97,10,10,10,17,8,25,0.00,4,,276
2013-3-21,33,25,18,18,15,10,78,66,54,30.02,29.97,29.93,10,10,8,10,6,23,0.00,7,Snow,284
2013-3-22,43,30,19,20,17,15,81,58,38,30.06,30.03,29.99,10,10,10,9,4,17,0.00,3,,273
2013-3-23,43,30,19,25,21,16,89,67,47,30.12,30.08,30.04,10,10,7,9,2,,0.00,2,,36
2013-3-24,36,32,27,26,23,20,82,70,52,30.01,29.80,29.58,10,10,8,21,10,31,0.00,5,Snow,53
2013-3-25,36,33,30,31,28,25,93,83,72,29.94,29.63,29.50,10,3,1,18,14,28,0.03,8,Snow,1
2013-3-26,43,36,33,30,28,26,79,72,60,30.19,30.09,29.96,10,10,10,15,8,21,0.00,8,,308
2013-3-27,45,38,32,29,25,20,82,61,40,30.28,30.23,30.17,10,10,10,12,5,21,0.00,5,,284
2013-3-28,53,40,27,28,22,19,75,53,32,30.33,30.29,30.26,10,10,10,10,4,17,0.00,1,,269
2013-3-29,53,39,25,27,21,17,88,54,25,30.33,30.29,30.23,10,10,9,13,2,,0.00,0,,310
2013-3-30,55,40,24,30,25,19,84,54,30,30.26,30.14,29.95,10,10,10,10,2,23,0.00,0,,208
2013-3-31,61,50,39,43,35,30,87,63,32,29.93,29.76,29.68,10,9,6,15,5,24,0.02,5,Rain,237